Time;durP1;ratioP1;P1;durP2;ratioP2;P2;SDS_P1;SDS_P2;PMS_P1;PMS_P2;Temp;Humidity;BMP_temperature;BMP_pressure;BME280_temperature;BME280_humidity;BME280_pressure;Samples;Min_cycle;Max_cycle;Signal;HPM_P1;HPM_P2
2022/06/11 00:00:31;;;;;;;;;;;22.00;50.80;;;;;;5054808;28;19996;-69
2022/06/11 00:02:57;;;;;;;;;;;22.00;50.80;;;;;;5056388;28;20322;-70
2022/06/11 00:05:23;;;;;;;;;;;21.90;50.60;;;;;;5054784;28;19909;-70
2022/06/11 00:07:50;;;;;;;;;;;21.90;50.80;;;;;;5054931;28;19913;-68
2022/06/11 00:10:15;;;;;;;;;;;21.80;50.50;;;;;;5054449;28;19959;-68
2022/06/11 00:12:41;;;;;;;;;;;21.80;50.30;;;;;;5054757;28;19945;-67
2022/06/11 00:15:07;;;;;;;;;;;21.70;50.10;;;;;;5054880;28;19908;-68
2022/06/11 00:17:32;;;;;;;;;;;21.70;50.20;;;;;;5054934;28;19951;-69
2022/06/11 00:19:58;;;;;;;;;;;21.60;50.00;;;;;;5054375;28;19959;-68
2022/06/11 00:22:24;;;;;;;;;;;21.60;50.10;;;;;;5054681;28;19944;-68
2022/06/11 00:24:50;;;;;;;;;;;21.60;50.10;;;;;;5055988;28;20003;-68
2022/06/11 00:27:16;;;;;;;;;;;21.50;50.00;;;;;;5054477;28;19915;-68
2022/06/11 00:29:42;;;;;;;;;;;21.50;50.10;;;;;;5053942;28;20249;-68
2022/06/11 00:32:09;;;;;;;;;;;21.40;50.10;;;;;;5054541;28;20265;-68
2022/06/11 00:34:36;;;;;;;;;;;21.40;50.10;;;;;;5054582;28;19904;-68
2022/06/11 00:37:01;;;;;;;;;;;21.40;50.10;;;;;;5054499;28;20000;-68
2022/06/11 00:39:29;;;;;;;;;;;21.30;50.10;;;;;;5054093;28;19951;-68
2022/06/11 00:41:57;;;;;;;;;;;21.30;50.00;;;;;;5054353;28;20462;-68
2022/06/11 00:44:23;;;;;;;;;;;21.30;50.20;;;;;;5054200;28;20284;-68
2022/06/11 00:46:49;;;;;;;;;;;21.30;50.20;;;;;;5054295;28;19908;-68
2022/06/11 00:49:38;;;;;;;;;;;21.20;50.20;;;;;;5053893;28;19960;-67
2022/06/11 00:52:16;;;;;;;;;;;21.20;50.40;;;;;;5051024;28;19919;-68
2022/06/11 00:54:44;;;;;;;;;;;21.10;50.30;;;;;;5055487;28;19905;-68
2022/06/11 00:57:11;;;;;;;;;;;21.10;50.30;;;;;;5053601;28;19958;-67
2022/06/11 00:59:38;;;;;;;;;;;21.10;50.40;;;;;;5053590;28;20274;-70
2022/06/11 01:02:05;;;;;;;;;;;21.10;50.30;;;;;;5053911;28;19967;-70
2022/06/11 01:04:30;;;;;;;;;;;21.10;50.40;;;;;;5053758;28;19912;-70
2022/06/11 01:06:58;;;;;;;;;;;21.00;50.30;;;;;;5054027;28;20003;-70
2022/06/11 01:09:29;;;;;;;;;;;21.00;50.40;;;;;;5053520;28;19909;-70
2022/06/11 01:12:05;;;;;;;;;;;21.00;50.20;;;;;;5053962;28;19963;-69
2022/06/11 01:14:48;;;;;;;;;;;20.90;50.30;;;;;;5053606;28;19913;-69
2022/06/11 01:17:13;;;;;;;;;;;20.90;50.40;;;;;;5053831;28;19909;-69
2022/06/11 01:19:42;;;;;;;;;;;20.90;50.50;;;;;;5053200;28;19935;-69
2022/06/11 01:22:13;;;;;;;;;;;20.90;50.60;;;;;;5053697;28;20325;-69
2022/06/11 01:24:45;;;;;;;;;;;20.90;50.40;;;;;;5053302;28;19909;-69
2022/06/11 01:27:33;;;;;;;;;;;20.80;50.60;;;;;;5054566;28;19916;-70
2022/06/11 01:30:02;;;;;;;;;;;20.80;50.50;;;;;;5053826;28;19920;-69
2022/06/11 01:32:46;;;;;;;;;;;20.80;50.60;;;;;;5053004;28;19913;-68
2022/06/11 01:35:23;;;;;;;;;;;20.80;50.60;;;;;;5052998;28;20346;-67
2022/06/11 01:37:54;;;;;;;;;;;20.80;50.60;;;;;;5053289;28;19909;-67
2022/06/11 01:40:26;;;;;;;;;;;20.70;50.50;;;;;;5052820;28;19944;-67
2022/06/11 01:43:00;;;;;;;;;;;20.70;50.60;;;;;;5053427;28;20023;-68
2022/06/11 01:45:28;;;;;;;;;;;20.60;50.60;;;;;;5053089;28;20266;-68
2022/06/11 01:47:54;;;;;;;;;;;20.70;51.20;;;;;;5053228;28;19909;-69
2022/06/11 01:50:22;;;;;;;;;;;20.60;50.70;;;;;;5052732;28;19908;-69
2022/06/11 01:53:08;;;;;;;;;;;20.60;50.60;;;;;;5052845;28;19920;-69
2022/06/11 01:55:40;;;;;;;;;;;20.60;50.60;;;;;;5048942;28;19912;-68
2022/06/11 01:58:44;;;;;;;;;;;20.50;50.70;;;;;;5053086;28;19916;-69
2022/06/11 02:01:17;;;;;;;;;;;20.50;50.50;;;;;;5035369;28;19909;-68
2022/06/11 02:03:46;;;;;;;;;;;20.50;50.60;;;;;;5035161;28;19999;-70
2022/06/11 02:06:16;;;;;;;;;;;20.50;50.70;;;;;;5043206;28;20369;-67
2022/06/11 02:08:45;;;;;;;;;;;20.50;50.90;;;;;;5051998;28;19916;-69
2022/06/11 02:11:18;;;;;;;;;;;20.40;50.70;;;;;;5052123;28;19951;-67
2022/06/11 02:13:59;;;;;;;;;;;20.40;50.70;;;;;;5052469;28;20047;-67
2022/06/11 02:16:26;;;;;;;;;;;20.40;50.80;;;;;;5052380;28;19909;-66
2022/06/11 02:18:53;;;;;;;;;;;20.40;50.80;;;;;;5052245;28;19909;-67
2022/06/11 02:21:22;;;;;;;;;;;20.40;50.70;;;;;;5052357;28;19909;-67
2022/06/11 02:23:51;;;;;;;;;;;20.30;50.70;;;;;;5052211;28;19916;-67
2022/06/11 02:26:22;;;;;;;;;;;20.30;50.60;;;;;;5052225;28;20369;-66
2022/06/11 02:28:49;;;;;;;;;;;20.30;50.60;;;;;;5052007;28;19909;-65
2022/06/11 02:31:15;;;;;;;;;;;20.30;50.60;;;;;;5052111;28;19917;-68
2022/06/11 02:33:41;;;;;;;;;;;20.30;50.70;;;;;;5051955;28;20026;-69
2022/06/11 02:36:10;;;;;;;;;;;20.20;50.80;;;;;;5051988;28;19948;-69
2022/06/11 02:38:35;;;;;;;;;;;20.20;50.80;;;;;;5052156;28;19982;-69
2022/06/11 02:41:06;;;;;;;;;;;20.20;50.80;;;;;;5052238;28;19908;-68
2022/06/11 02:43:31;;;;;;;;;;;20.20;50.80;;;;;;5052130;28;19931;-68
2022/06/11 02:45:57;;;;;;;;;;;20.20;51.00;;;;;;5052240;28;20288;-67
2022/06/11 02:48:22;;;;;;;;;;;20.10;50.70;;;;;;5051959;28;19932;-68
2022/06/11 02:50:48;;;;;;;;;;;20.10;50.60;;;;;;5051895;28;19909;-69
2022/06/11 02:53:14;;;;;;;;;;;20.10;50.70;;;;;;5052150;28;19913;-71
2022/06/11 02:55:41;;;;;;;;;;;20.10;50.80;;;;;;5052028;28;19920;-69
2022/06/11 02:58:07;;;;;;;;;;;20.10;51.10;;;;;;5052103;28;20369;-68
2022/06/11 03:00:35;;;;;;;;;;;20.00;51.70;;;;;;5051690;28;19909;-69
2022/06/11 03:03:01;;;;;;;;;;;20.10;52.30;;;;;;5052190;28;20372;-69
2022/06/11 03:05:29;;;;;;;;;;;20.00;52.40;;;;;;5051818;28;20002;-68
2022/06/11 03:07:55;;;;;;;;;;;20.10;51.90;;;;;;5052021;28;19909;-70
2022/06/11 03:10:22;;;;;;;;;;;20.00;51.60;;;;;;5051610;28;20281;-70
2022/06/11 03:12:47;;;;;;;;;;;20.00;51.30;;;;;;5051781;28;19912;-71
2022/06/11 03:15:14;;;;;;;;;;;20.00;51.30;;;;;;5051902;28;19916;-71
2022/06/11 03:17:40;;;;;;;;;;;20.00;51.30;;;;;;5051851;28;19913;-71
2022/06/11 03:20:06;;;;;;;;;;;20.00;51.30;;;;;;5051500;28;20365;-71
2022/06/11 03:22:32;;;;;;;;;;;20.00;51.30;;;;;;5055557;28;20406;-71
2022/06/11 03:24:58;;;;;;;;;;;20.00;51.10;;;;;;5055710;28;20365;-71
2022/06/11 03:27:23;;;;;;;;;;;19.90;51.10;;;;;;5055790;28;19916;-71
2022/06/11 03:29:49;;;;;;;;;;;19.90;51.10;;;;;;5055077;28;19964;-71
2022/06/11 03:32:14;;;;;;;;;;;19.90;51.10;;;;;;5055666;28;19935;-69
2022/06/11 03:34:40;;;;;;;;;;;19.90;51.10;;;;;;5055524;28;19919;-69
2022/06/11 03:37:06;;;;;;;;;;;19.90;51.20;;;;;;5055598;28;19905;-69
2022/06/11 03:39:31;;;;;;;;;;;19.90;51.30;;;;;;5055151;28;19909;-71
2022/06/11 03:41:57;;;;;;;;;;;19.90;51.40;;;;;;5055575;28;20468;-72
2022/06/11 03:44:23;;;;;;;;;;;19.80;51.30;;;;;;5055317;28;20000;-71
2022/06/11 03:46:48;;;;;;;;;;;19.90;51.30;;;;;;5055403;28;20495;-70
2022/06/11 03:49:14;;;;;;;;;;;19.90;51.30;;;;;;5054918;28;19905;-69
2022/06/11 03:51:40;;;;;;;;;;;19.80;51.20;;;;;;5055198;28;20393;-70
2022/06/11 03:54:07;;;;;;;;;;;19.80;51.30;;;;;;5055111;28;19920;-70
2022/06/11 03:56:34;;;;;;;;;;;19.80;51.30;;;;;;5055045;28;19908;-70
2022/06/11 03:58:59;;;;;;;;;;;19.80;51.30;;;;;;5054992;28;19916;-70
2022/06/11 04:01:25;;;;;;;;;;;19.80;51.30;;;;;;5055155;28;19909;-69
2022/06/11 04:03:51;;;;;;;;;;;19.80;51.50;;;;;;5054974;28;20353;-69
2022/06/11 04:06:18;;;;;;;;;;;19.80;51.20;;;;;;5054929;28;19916;-69
2022/06/11 04:08:43;;;;;;;;;;;19.80;51.30;;;;;;5054696;28;20412;-69
2022/06/11 04:11:09;;;;;;;;;;;19.80;51.20;;;;;;5054990;28;19988;-69
2022/06/11 04:13:36;;;;;;;;;;;19.80;51.40;;;;;;5054695;28;19919;-69
2022/06/11 04:16:02;;;;;;;;;;;19.80;51.50;;;;;;5054808;28;19912;-69
2022/06/11 04:18:31;;;;;;;;;;;19.80;51.40;;;;;;5055831;28;19909;-69
2022/06/11 04:20:57;;;;;;;;;;;19.80;51.30;;;;;;5054715;28;19909;-69
2022/06/11 04:23:24;;;;;;;;;;;19.80;51.50;;;;;;5054671;28;19909;-69
2022/06/11 04:25:51;;;;;;;;;;;19.80;51.70;;;;;;5054526;28;19959;-69
2022/06/11 04:28:16;;;;;;;;;;;19.80;51.60;;;;;;5054803;28;19915;-69
2022/06/11 04:30:42;;;;;;;;;;;19.80;51.70;;;;;;5054169;28;20013;-69
2022/06/11 04:33:07;;;;;;;;;;;19.80;51.70;;;;;;5053726;28;19913;-69
2022/06/11 04:35:33;;;;;;;;;;;19.80;51.90;;;;;;5054409;28;19966;-68
2022/06/11 04:37:58;;;;;;;;;;;19.90;51.80;;;;;;5054481;28;20379;-69
2022/06/11 04:40:24;;;;;;;;;;;19.90;51.70;;;;;;5053920;28;19909;-68
2022/06/11 04:42:49;;;;;;;;;;;19.90;52.00;;;;;;5054398;28;19909;-70
2022/06/11 04:45:17;;;;;;;;;;;20.00;52.00;;;;;;5054167;28;19932;-68
2022/06/11 04:47:43;;;;;;;;;;;20.00;51.90;;;;;;5054350;28;19909;-69
2022/06/11 04:50:09;;;;;;;;;;;20.10;51.90;;;;;;5054039;28;19908;-68
2022/06/11 04:52:34;;;;;;;;;;;20.20;51.50;;;;;;5054108;28;19956;-69
2022/06/11 04:55:00;;;;;;;;;;;20.20;51.50;;;;;;5053994;28;20018;-69
2022/06/11 04:57:25;;;;;;;;;;;20.30;51.60;;;;;;5054042;28;19936;-69
2022/06/11 04:59:51;;;;;;;;;;;20.30;51.40;;;;;;5054871;28;20000;-69
2022/06/11 05:02:17;;;;;;;;;;;20.40;51.50;;;;;;5051169;28;19967;-69
2022/06/11 05:04:42;;;;;;;;;;;20.40;51.00;;;;;;5058490;28;20361;-69
2022/06/11 05:07:08;;;;;;;;;;;20.50;51.00;;;;;;5050622;28;20313;-72
2022/06/11 05:09:33;;;;;;;;;;;20.60;51.00;;;;;;5050801;28;20000;-72
2022/06/11 05:11:59;;;;;;;;;;;20.70;51.40;;;;;;5053706;28;20316;-72
2022/06/11 05:14:25;;;;;;;;;;;20.80;51.20;;;;;;5053570;28;20336;-72
2022/06/11 05:16:51;;;;;;;;;;;20.80;51.10;;;;;;5053799;28;20381;-72
2022/06/11 05:19:18;;;;;;;;;;;20.90;50.80;;;;;;5053441;28;19936;-71
2022/06/11 05:21:44;;;;;;;;;;;20.90;50.70;;;;;;5037090;28;19909;-67
2022/06/11 05:24:10;;;;;;;;;;;21.10;50.60;;;;;;5035039;28;19909;-68
2022/06/11 05:26:37;;;;;;;;;;;21.10;50.40;;;;;;5054162;28;20046;-67
2022/06/11 05:29:04;;;;;;;;;;;21.20;50.30;;;;;;5053050;28;19916;-67
2022/06/11 05:31:29;;;;;;;;;;;21.30;50.20;;;;;;5053255;28;20377;-67
2022/06/11 05:33:55;;;;;;;;;;;21.40;49.90;;;;;;5045140;28;19920;-67
2022/06/11 05:36:20;;;;;;;;;;;21.50;49.80;;;;;;5043176;28;20377;-72
2022/06/11 05:38:46;;;;;;;;;;;21.60;49.70;;;;;;5052978;28;20316;-72
2022/06/11 05:41:12;;;;;;;;;;;21.70;49.60;;;;;;5048579;28;19966;-71
2022/06/11 05:43:38;;;;;;;;;;;21.80;49.40;;;;;;5046821;28;20298;-69
2022/06/11 05:46:15;;;;;;;;;;;21.90;49.40;;;;;;5053086;28;20008;-67
2022/06/11 05:48:42;;;;;;;;;;;22.00;48.80;;;;;;5053965;28;19921;-69
2022/06/11 05:51:10;;;;;;;;;;;22.00;48.50;;;;;;5053019;28;20262;-68
2022/06/11 05:53:36;;;;;;;;;;;22.10;48.20;;;;;;5040871;28;19939;-69
2022/06/11 05:56:03;;;;;;;;;;;22.20;48.40;;;;;;5068723;28;19923;-68
2022/06/11 05:58:32;;;;;;;;;;;22.30;48.30;;;;;;5068804;28;19952;-68
2022/06/11 06:00:58;;;;;;;;;;;22.40;47.70;;;;;;5042953;28;20298;-69
2022/06/11 06:03:23;;;;;;;;;;;22.50;47.30;;;;;;5032889;28;19909;-68
2022/06/11 06:05:49;;;;;;;;;;;22.80;47.00;;;;;;5034052;28;20392;-69
2022/06/11 06:08:15;;;;;;;;;;;23.20;46.90;;;;;;5032752;28;19913;-68
2022/06/11 06:10:40;;;;;;;;;;;24.10;45.80;;;;;;5032350;28;20504;-70
2022/06/11 06:13:45;;;;;;;;;;;24.90;44.80;;;;;;5053849;28;20388;-68
2022/06/11 06:15:52;;;;;;;;;;;25.50;44.00;;;;;;5063004;28;19913;-68
2022/06/11 06:18:19;;;;;;;;;;;25.60;43.20;;;;;;5032874;28;20006;-69
2022/06/11 06:20:45;;;;;;;;;;;25.70;42.60;;;;;;5033642;28;19952;-69
2022/06/11 06:23:10;;;;;;;;;;;25.80;42.40;;;;;;5035651;28;19994;-67
2022/06/11 06:25:36;;;;;;;;;;;26.00;42.20;;;;;;5032446;28;19920;-68
2022/06/11 06:28:01;;;;;;;;;;;26.10;41.80;;;;;;5032496;28;19916;-69
2022/06/11 06:30:27;;;;;;;;;;;26.50;41.80;;;;;;5031290;28;19925;-69
2022/06/11 06:32:52;;;;;;;;;;;26.40;41.30;;;;;;5049320;28;20365;-68
2022/06/11 06:35:18;;;;;;;;;;;26.70;41.00;;;;;;5052279;28;19908;-69
2022/06/11 06:37:43;;;;;;;;;;;26.50;40.50;;;;;;5052289;28;19913;-69
2022/06/11 06:40:09;;;;;;;;;;;26.70;40.60;;;;;;5052021;28;19959;-69
2022/06/11 06:42:34;;;;;;;;;;;26.70;40.20;;;;;;5048253;28;19956;-69
2022/06/11 06:45:00;;;;;;;;;;;26.80;40.30;;;;;;5045106;28;20107;-74
2022/06/11 06:47:26;;;;;;;;;;;27.00;40.50;;;;;;5042865;28;19964;-76
2022/06/11 06:49:51;;;;;;;;;;;27.30;40.50;;;;;;5051044;28;19931;-76
2022/06/11 06:52:17;;;;;;;;;;;27.20;40.70;;;;;;5051897;28;19913;-75
2022/06/11 06:54:42;;;;;;;;;;;27.20;40.60;;;;;;5051786;28;19912;-76
2022/06/11 06:57:08;;;;;;;;;;;27.20;40.40;;;;;;5051606;28;19935;-74
2022/06/11 06:59:33;;;;;;;;;;;27.20;40.40;;;;;;5051731;28;19913;-77
2022/06/11 07:01:59;;;;;;;;;;;27.10;40.20;;;;;;5052069;28;19913;-74
2022/06/11 07:04:24;;;;;;;;;;;27.10;40.20;;;;;;5051857;28;20497;-76
2022/06/11 07:06:50;;;;;;;;;;;27.10;39.90;;;;;;5051958;28;19964;-74
2022/06/11 07:09:15;;;;;;;;;;;27.30;39.80;;;;;;5051705;28;19909;-74
2022/06/11 07:11:41;;;;;;;;;;;27.40;39.40;;;;;;5051977;28;19957;-73
2022/06/11 07:14:07;;;;;;;;;;;27.50;39.20;;;;;;5051759;28;19998;-76
2022/06/11 07:16:33;;;;;;;;;;;27.70;39.00;;;;;;5052020;28;19909;-76
2022/06/11 07:19:01;;;;;;;;;;;27.70;38.60;;;;;;5051536;28;19909;-75
2022/06/11 07:21:37;;;;;;;;;;;27.90;38.60;;;;;;5052190;28;19916;-73
2022/06/11 07:24:05;;;;;;;;;;;28.00;38.30;;;;;;5051822;28;19916;-73
2022/06/11 07:26:36;;;;;;;;;;;28.20;38.20;;;;;;5051850;28;19978;-76
2022/06/11 07:29:07;;;;;;;;;;;28.40;37.70;;;;;;5051459;28;20281;-74
2022/06/11 07:31:32;;;;;;;;;;;28.60;37.20;;;;;;5053009;28;19917;-77
2022/06/11 07:33:58;;;;;;;;;;;28.60;36.30;;;;;;5052582;28;19913;-77
2022/06/11 07:36:25;;;;;;;;;;;28.70;35.90;;;;;;5051310;28;20350;-74
2022/06/11 07:38:50;;;;;;;;;;;28.80;36.00;;;;;;5051146;28;19921;-74
2022/06/11 07:41:16;;;;;;;;;;;29.00;36.10;;;;;;5051454;28;20019;-73
2022/06/11 07:43:41;;;;;;;;;;;29.10;36.20;;;;;;5051300;28;19909;-74
2022/06/11 07:46:07;;;;;;;;;;;29.10;35.90;;;;;;5051378;28;19954;-74
2022/06/11 07:48:33;;;;;;;;;;;29.20;36.40;;;;;;5051237;28;20288;-77
2022/06/11 07:50:58;;;;;;;;;;;29.10;36.30;;;;;;5052570;28;20280;-74
2022/06/11 07:53:24;;;;;;;;;;;29.00;36.60;;;;;;5051179;28;19944;-76
2022/06/11 07:55:51;;;;;;;;;;;28.80;36.80;;;;;;5051264;28;19916;-73
2022/06/11 07:58:19;;;;;;;;;;;28.70;37.00;;;;;;5051343;28;19996;-75
2022/06/11 08:00:46;;;;;;;;;;;28.60;37.40;;;;;;5050954;28;19909;-77
2022/06/11 08:03:12;;;;;;;;;;;28.40;37.60;;;;;;5051189;28;20380;-76
2022/06/11 08:05:37;;;;;;;;;;;28.30;37.90;;;;;;5051148;28;19909;-74
2022/06/11 08:08:07;;;;;;;;;;;28.30;38.70;;;;;;5052312;28;19909;-73
2022/06/11 08:10:33;;;;;;;;;;;28.20;38.10;;;;;;5054412;28;19915;-75
2022/06/11 08:12:59;;;;;;;;;;;28.10;38.10;;;;;;5054575;28;19913;-75
2022/06/11 08:15:24;;;;;;;;;;;28.10;38.30;;;;;;5054533;28;19909;-76
2022/06/11 08:17:50;;;;;;;;;;;28.20;38.20;;;;;;5054628;28;19916;-73
2022/06/11 08:20:19;;;;;;;;;;;28.20;38.10;;;;;;5054229;28;19948;-74
2022/06/11 08:22:45;;;;;;;;;;;28.40;37.90;;;;;;5055634;28;20254;-73
2022/06/11 08:25:10;;;;;;;;;;;28.60;37.40;;;;;;5055598;28;19916;-75
2022/06/11 08:27:36;;;;;;;;;;;28.70;37.20;;;;;;5055676;28;19909;-76
2022/06/11 08:30:03;;;;;;;;;;;28.80;36.90;;;;;;5053878;28;19923;-73
2022/06/11 08:32:28;;;;;;;;;;;28.90;36.60;;;;;;5054332;28;19964;-75
2022/06/11 08:34:54;;;;;;;;;;;28.90;36.60;;;;;;5054150;28;19909;-75
2022/06/11 08:37:19;;;;;;;;;;;28.90;36.30;;;;;;5054196;28;19912;-76
2022/06/11 08:39:45;;;;;;;;;;;28.90;36.20;;;;;;5053808;28;19909;-77
2022/06/11 08:42:30;;;;;;;;;;;28.90;36.30;;;;;;5054075;28;19912;-73
2022/06/11 08:44:57;;;;;;;;;;;28.90;36.40;;;;;;5054045;28;19952;-73
2022/06/11 08:47:24;;;;;;;;;;;28.80;36.50;;;;;;5053967;28;20007;-74
2022/06/11 08:49:52;;;;;;;;;;;28.70;36.70;;;;;;5053644;28;19913;-75
2022/06/11 08:52:23;;;;;;;;;;;28.60;37.00;;;;;;5053876;28;19909;-72
2022/06/11 08:54:49;;;;;;;;;;;28.50;37.10;;;;;;5053746;28;19909;-74
2022/06/11 08:57:30;;;;;;;;;;;28.40;37.00;;;;;;5053894;28;20027;-76
2022/06/11 09:00:08;;;;;;;;;;;28.30;37.40;;;;;;5053537;28;20266;-77
2022/06/11 09:02:43;;;;;;;;;;;28.20;37.60;;;;;;5053798;28;19920;-73
2022/06/11 09:05:11;;;;;;;;;;;28.10;37.80;;;;;;5053593;28;20007;-77
2022/06/11 09:07:37;;;;;;;;;;;28.10;38.10;;;;;;5053656;28;19948;-75
2022/06/11 09:10:11;;;;;;;;;;;28.00;38.30;;;;;;5053238;28;19948;-76
2022/06/11 09:12:48;;;;;;;;;;;27.90;38.30;;;;;;5053530;28;20419;-76
2022/06/11 09:15:32;;;;;;;;;;;27.90;38.40;;;;;;5053408;28;20362;-76
2022/06/11 09:18:16;;;;;;;;;;;27.80;38.50;;;;;;5053399;28;20270;-73
2022/06/11 09:20:50;;;;;;;;;;;27.80;38.30;;;;;;5054302;28;19912;-74
2022/06/11 09:23:19;;;;;;;;;;;27.80;38.40;;;;;;5053364;28;19944;-75
2022/06/11 09:25:57;;;;;;;;;;;27.70;38.40;;;;;;5053202;28;19916;-76
2022/06/11 09:28:22;;;;;;;;;;;27.70;38.50;;;;;;5053048;28;19916;-73
2022/06/11 09:30:53;;;;;;;;;;;27.70;38.50;;;;;;5052998;28;19917;-74
2022/06/11 09:33:20;;;;;;;;;;;27.70;38.50;;;;;;5053083;28;19913;-75
2022/06/11 09:35:50;;;;;;;;;;;27.70;38.50;;;;;;5052969;28;19913;-76
2022/06/11 09:38:45;;;;;;;;;;;27.70;38.50;;;;;;5053091;28;20254;-74
2022/06/11 09:41:25;;;;;;;;;;;27.70;38.10;;;;;;5048053;28;19913;-73
2022/06/11 09:43:58;;;;;;;;;;;27.60;38.40;;;;;;5052994;28;19909;-75
2022/06/11 09:46:37;;;;;;;;;;;27.50;38.50;;;;;;5052854;28;19916;-75
2022/06/11 09:49:02;;;;;;;;;;;27.30;38.80;;;;;;5052605;28;19913;-76
2022/06/11 09:51:28;;;;;;;;;;;27.10;39.20;;;;;;5052792;28;19909;-75
2022/06/11 09:53:53;;;;;;;;;;;27.00;39.50;;;;;;5052737;28;19913;-73
2022/06/11 09:56:24;;;;;;;;;;;26.90;39.60;;;;;;5052579;28;20377;-77
2022/06/11 09:59:02;;;;;;;;;;;26.80;39.90;;;;;;5052408;28;19948;-72
2022/06/11 10:01:31;;;;;;;;;;;26.70;40.20;;;;;;5053238;28;19915;-76
2022/06/11 10:03:58;;;;;;;;;;;26.60;40.20;;;;;;5052621;28;19959;-74
2022/06/11 10:06:26;;;;;;;;;;;26.50;40.40;;;;;;5052645;28;19938;-73
2022/06/11 10:08:54;;;;;;;;;;;26.40;40.60;;;;;;5052679;28;19913;-76
2022/06/11 10:11:29;;;;;;;;;;;26.30;40.60;;;;;;5053150;28;20046;-77
2022/06/11 10:14:28;;;;;;;;;;;26.20;40.80;;;;;;5052395;28;20357;-76
2022/06/11 10:16:52;;;;;;;;;;;26.20;40.70;;;;;;5053540;28;19909;-74
2022/06/11 10:19:24;;;;;;;;;;;26.00;40.80;;;;;;5053342;28;19909;-77
2022/06/11 10:22:04;;;;;;;;;;;26.00;41.00;;;;;;5052307;28;19971;-72
2022/06/11 10:24:30;;;;;;;;;;;25.90;41.10;;;;;;5052084;28;20278;-75
2022/06/11 10:26:59;;;;;;;;;;;25.80;41.20;;;;;;5052281;28;19916;-73
2022/06/11 10:29:35;;;;;;;;;;;25.70;41.40;;;;;;5051720;28;20380;-74
2022/06/11 10:32:06;;;;;;;;;;;25.70;41.60;;;;;;5051603;28;19928;-76
2022/06/11 10:34:34;;;;;;;;;;;25.60;41.60;;;;;;5051945;28;19909;-77
2022/06/11 10:37:10;;;;;;;;;;;25.50;41.70;;;;;;5052066;28;20285;-72
2022/06/11 10:39:35;;;;;;;;;;;25.50;41.80;;;;;;5051636;28;19916;-76
2022/06/11 10:42:04;;;;;;;;;;;25.50;41.90;;;;;;5052022;28;19916;-77
2022/06/11 10:44:38;;;;;;;;;;;25.40;42.00;;;;;;5051798;28;20354;-74
2022/06/11 10:47:13;;;;;;;;;;;25.40;42.20;;;;;;5045714;28;20405;-75
2022/06/11 10:49:39;;;;;;;;;;;25.30;42.10;;;;;;5052383;28;19916;-75
2022/06/11 10:52:26;;;;;;;;;;;25.30;42.30;;;;;;5053453;28;19909;-75
2022/06/11 10:54:51;;;;;;;;;;;25.20;42.30;;;;;;5056877;28;19970;-72
2022/06/11 10:57:22;;;;;;;;;;;25.20;42.30;;;;;;5051962;28;19908;-74
2022/06/11 10:59:55;;;;;;;;;;;25.10;42.40;;;;;;5051679;28;19916;-74
2022/06/11 11:02:20;;;;;;;;;;;25.10;42.50;;;;;;5053338;28;19944;-72
2022/06/11 11:05:01;;;;;;;;;;;25.00;42.50;;;;;;5058788;28;20432;-78
2022/06/11 11:07:40;;;;;;;;;;;25.00;42.50;;;;;;5046493;28;19909;-76
2022/06/11 11:10:17;;;;;;;;;;;25.00;42.60;;;;;;5050124;28;19909;-72
2022/06/11 11:12:43;;;;;;;;;;;25.00;42.70;;;;;;5072941;28;20407;-77
2022/06/11 11:15:09;;;;;;;;;;;24.90;42.80;;;;;;5071535;28;19912;-74
2022/06/11 11:17:34;;;;;;;;;;;24.90;42.80;;;;;;5071881;28;19962;-74
2022/06/11 11:20:30;;;;;;;;;;;24.90;42.90;;;;;;5071481;28;20247;-70
2022/06/11 11:22:59;;;;;;;;;;;24.90;43.00;;;;;;5057047;28;19908;-70
2022/06/11 11:25:35;;;;;;;;;;;24.90;43.10;;;;;;5051681;28;19909;-74
2022/06/11 11:28:02;;;;;;;;;;;24.80;43.10;;;;;;5069294;28;19916;-76
2022/06/11 11:30:38;;;;;;;;;;;24.80;43.20;;;;;;5072640;28;19916;-73
2022/06/11 11:33:19;;;;;;;;;;;24.80;43.30;;;;;;5071790;28;19912;-72
2022/06/11 11:35:44;;;;;;;;;;;24.70;43.30;;;;;;5056178;28;19913;-72
2022/06/11 11:38:13;;;;;;;;;;;24.70;43.30;;;;;;5031843;28;20008;-74
2022/06/11 11:40:58;;;;;;;;;;;24.70;43.40;;;;;;5038845;28;19959;-75
2022/06/11 11:43:25;;;;;;;;;;;24.70;43.50;;;;;;5053019;28;19908;-73
2022/06/11 11:45:55;;;;;;;;;;;24.70;43.50;;;;;;5051434;28;19919;-73
2022/06/11 11:48:26;;;;;;;;;;;24.60;43.50;;;;;;5047563;28;19920;-77
2022/06/11 11:50:54;;;;;;;;;;;24.60;43.50;;;;;;5045374;28;20007;-74
2022/06/11 11:53:22;;;;;;;;;;;24.60;43.50;;;;;;5055216;28;19982;-73
2022/06/11 11:56:00;;;;;;;;;;;24.60;43.60;;;;;;5049264;28;19913;-73
2022/06/11 11:58:37;;;;;;;;;;;24.60;43.60;;;;;;5052920;28;19909;-73
2022/06/11 12:01:07;;;;;;;;;;;24.60;43.70;;;;;;5046203;28;20043;-73
2022/06/11 12:03:36;;;;;;;;;;;24.60;43.70;;;;;;5051722;28;20345;-74
2022/06/11 12:06:02;;;;;;;;;;;24.60;43.70;;;;;;5052642;28;19920;-75
2022/06/11 12:08:48;;;;;;;;;;;24.50;43.70;;;;;;5034836;28;20523;-72
2022/06/11 12:11:23;;;;;;;;;;;24.50;43.70;;;;;;5055984;28;19920;-74
2022/06/11 12:13:50;;;;;;;;;;;24.50;43.80;;;;;;5061994;28;19920;-76
2022/06/11 12:16:18;;;;;;;;;;;24.50;43.90;;;;;;5054443;28;19909;-74
2022/06/11 12:18:48;;;;;;;;;;;24.50;43.90;;;;;;5068183;28;19975;-73
2022/06/11 12:21:16;;;;;;;;;;;24.50;44.00;;;;;;5054709;28;19932;-77
2022/06/11 12:23:46;;;;;;;;;;;24.50;44.00;;;;;;5052271;28;19923;-73
2022/06/11 12:26:13;;;;;;;;;;;24.50;44.00;;;;;;5042701;28;19955;-74
2022/06/11 12:28:44;;;;;;;;;;;24.50;44.00;;;;;;5042116;28;19909;-77
2022/06/11 12:31:11;;;;;;;;;;;24.50;44.10;;;;;;5041231;28;19924;-73
2022/06/11 12:33:41;;;;;;;;;;;24.50;44.10;;;;;;5034487;28;20458;-72
2022/06/11 12:36:15;;;;;;;;;;;24.50;44.10;;;;;;5034542;28;20373;-75
2022/06/11 12:38:41;;;;;;;;;;;24.40;44.10;;;;;;5054341;28;19913;-72
2022/06/11 12:41:09;;;;;;;;;;;24.40;44.10;;;;;;5074244;28;19961;-75
2022/06/11 12:43:54;;;;;;;;;;;24.40;44.20;;;;;;5074465;28;19908;-75
2022/06/11 12:46:22;;;;;;;;;;;24.40;44.20;;;;;;5062707;28;20281;-73
2022/06/11 12:48:49;;;;;;;;;;;24.40;44.20;;;;;;5050858;28;20247;-75
2022/06/11 12:51:15;;;;;;;;;;;24.40;44.20;;;;;;5054176;28;20031;-73
2022/06/11 12:53:58;;;;;;;;;;;24.50;44.30;;;;;;5053367;28;20193;-77
2022/06/11 12:56:28;;;;;;;;;;;24.40;44.40;;;;;;5054011;28;19909;-76
2022/06/11 12:58:57;;;;;;;;;;;24.40;44.50;;;;;;5053970;28;19909;-76
2022/06/11 13:01:26;;;;;;;;;;;24.40;44.50;;;;;;5072848;28;19917;-76
2022/06/11 13:04:01;;;;;;;;;;;24.40;44.50;;;;;;5063054;28;20461;-75
2022/06/11 13:06:33;;;;;;;;;;;24.40;44.50;;;;;;5050294;28;19909;-73
2022/06/11 13:09:08;;;;;;;;;;;24.40;44.40;;;;;;5053669;28;19909;-77
2022/06/11 13:11:52;;;;;;;;;;;24.40;44.40;;;;;;5044922;28;19917;-75
2022/06/11 13:14:30;;;;;;;;;;;24.40;44.40;;;;;;5045707;28;19924;-74
2022/06/11 13:17:03;;;;;;;;;;;24.40;44.50;;;;;;5053685;28;19936;-73
2022/06/11 13:19:34;;;;;;;;;;;24.40;44.50;;;;;;5038968;28;19913;-74
2022/06/11 13:22:03;;;;;;;;;;;24.40;44.50;;;;;;5033657;28;20289;-75
2022/06/11 13:24:28;;;;;;;;;;;24.40;44.50;;;;;;5033604;28;19909;-74
2022/06/11 13:27:03;;;;;;;;;;;24.40;44.60;;;;;;5033755;28;19932;-76
2022/06/11 13:29:28;;;;;;;;;;;24.40;44.60;;;;;;5032868;28;20377;-76
2022/06/11 13:31:57;;;;;;;;;;;24.40;45.20;;;;;;5053491;28;19917;-75
2022/06/11 13:34:37;;;;;;;;;;;24.40;44.60;;;;;;5053140;28;19971;-76
2022/06/11 13:37:21;;;;;;;;;;;24.40;44.60;;;;;;5051175;28;19913;-76
2022/06/11 13:40:05;;;;;;;;;;;24.40;44.60;;;;;;5053005;28;19913;-76
2022/06/11 13:42:35;;;;;;;;;;;24.40;44.60;;;;;;5052613;28;19952;-73
2022/06/11 13:45:24;;;;;;;;;;;24.40;44.50;;;;;;5053230;28;19913;-76
2022/06/11 13:48:08;;;;;;;;;;;24.40;44.50;;;;;;5043272;28;19939;-73
2022/06/11 13:50:43;;;;;;;;;;;24.40;44.50;;;;;;5055775;28;20019;-76
2022/06/11 13:55:59;;;;;;;;;;;24.40;44.60;;;;;;5054690;28;20300;-72
2022/06/11 13:58:28;;;;;;;;;;;24.40;44.60;;;;;;5048555;28;19952;-73
2022/06/11 14:01:05;;;;;;;;;;;24.40;44.70;;;;;;5055188;28;19920;-73
2022/06/11 14:03:33;;;;;;;;;;;24.40;44.70;;;;;;5052688;28;19909;-75
2022/06/11 14:06:01;;;;;;;;;;;24.40;44.70;;;;;;5052689;28;19913;-72
2022/06/11 14:08:53;;;;;;;;;;;24.40;44.70;;;;;;5052577;28;19916;-72
2022/06/11 14:11:39;;;;;;;;;;;24.40;44.70;;;;;;5046994;28;19908;-76
2022/06/11 14:14:25;;;;;;;;;;;24.40;44.90;;;;;;5032525;28;19924;-76
2022/06/11 14:16:50;;;;;;;;;;;24.30;45.10;;;;;;5046855;28;19937;-76
2022/06/11 14:19:16;;;;;;;;;;;24.40;45.10;;;;;;5051294;28;19936;-74
2022/06/11 14:21:45;;;;;;;;;;;24.40;45.00;;;;;;5047174;28;20381;-73
2022/06/11 14:24:30;;;;;;;;;;;24.30;45.20;;;;;;5048590;28;19936;-75
2022/06/11 14:26:56;;;;;;;;;;;24.30;45.60;;;;;;5045488;28;19917;-77
2022/06/11 14:29:22;;;;;;;;;;;24.30;45.20;;;;;;5039581;28;19917;-74
2022/06/11 14:31:49;;;;;;;;;;;24.30;45.30;;;;;;5044974;28;20375;-73